sensor_id;sensor_type;location;lat;lon;timestamp;P1;durP1;ratioP1;P2;durP2;ratioP2
74375;SDS011;62812;55.188;61.302;2023-06-10T00:01:45;17.48;;;8.27;;
74375;SDS011;62812;55.188;61.302;2023-06-10T00:04:14;26.05;;;9.13;;
74375;SDS011;62812;55.188;61.302;2023-06-10T00:06:42;17.75;;;8.90;;
74375;SDS011;62812;55.188;61.302;2023-06-10T00:09:12;19.70;;;8.52;;
74375;SDS011;62812;55.188;61.302;2023-06-10T00:11:41;21.80;;;9.20;;
74375;SDS011;62812;55.188;61.302;2023-06-10T00:14:08;14.60;;;8.20;;
74375;SDS011;62812;55.188;61.302;2023-06-10T00:16:35;15.27;;;8.07;;
74375;SDS011;62812;55.188;61.302;2023-06-10T00:19:02;14.55;;;7.35;;
74375;SDS011;62812;55.188;61.302;2023-06-10T00:21:29;14.23;;;6.80;;
74375;SDS011;62812;55.188;61.302;2023-06-10T00:24:03;11.68;;;6.85;;
74375;SDS011;62812;55.188;61.302;2023-06-10T00:26:31;14.73;;;7.22;;
74375;SDS011;62812;55.188;61.302;2023-06-10T00:29:00;17.05;;;6.72;;
74375;SDS011;62812;55.188;61.302;2023-06-10T00:31:26;13.50;;;7.07;;
74375;SDS011;62812;55.188;61.302;2023-06-10T00:33:53;14.73;;;7.72;;
74375;SDS011;62812;55.188;61.302;2023-06-10T00:36:20;19.75;;;7.68;;
74375;SDS011;62812;55.188;61.302;2023-06-10T00:38:49;13.10;;;7.60;;
74375;SDS011;62812;55.188;61.302;2023-06-10T00:41:16;15.50;;;7.32;;
74375;SDS011;62812;55.188;61.302;2023-06-10T00:43:43;20.40;;;8.13;;
74375;SDS011;62812;55.188;61.302;2023-06-10T00:46:11;15.30;;;7.82;;
74375;SDS011;62812;55.188;61.302;2023-06-10T00:48:39;13.77;;;6.72;;
74375;SDS011;62812;55.188;61.302;2023-06-10T00:51:07;17.20;;;7.60;;
74375;SDS011;62812;55.188;61.302;2023-06-10T00:53:39;20.20;;;7.82;;
74375;SDS011;62812;55.188;61.302;2023-06-10T00:56:07;15.82;;;7.35;;
74375;SDS011;62812;55.188;61.302;2023-06-10T00:58:34;13.63;;;7.18;;
74375;SDS011;62812;55.188;61.302;2023-06-10T01:01:01;16.05;;;7.53;;
74375;SDS011;62812;55.188;61.302;2023-06-10T01:03:31;18.20;;;7.68;;
74375;SDS011;62812;55.188;61.302;2023-06-10T01:06:06;19.70;;;7.63;;
74375;SDS011;62812;55.188;61.302;2023-06-10T01:08:41;16.52;;;7.45;;
74375;SDS011;62812;55.188;61.302;2023-06-10T01:11:13;13.82;;;7.60;;
74375;SDS011;62812;55.188;61.302;2023-06-10T01:13:50;17.63;;;7.68;;
74375;SDS011;62812;55.188;61.302;2023-06-10T01:16:17;13.43;;;7.00;;
74375;SDS011;62812;55.188;61.302;2023-06-10T01:18:47;11.70;;;6.70;;
74375;SDS011;62812;55.188;61.302;2023-06-10T01:21:19;13.98;;;6.82;;
74375;SDS011;62812;55.188;61.302;2023-06-10T01:23:47;12.93;;;6.70;;
74375;SDS011;62812;55.188;61.302;2023-06-10T01:26:13;10.70;;;6.15;;
74375;SDS011;62812;55.188;61.302;2023-06-10T01:28:44;13.35;;;6.80;;
74375;SDS011;62812;55.188;61.302;2023-06-10T01:31:16;11.68;;;6.00;;
74375;SDS011;62812;55.188;61.302;2023-06-10T01:33:51;12.73;;;6.80;;
74375;SDS011;62812;55.188;61.302;2023-06-10T01:36:21;12.02;;;6.15;;
74375;SDS011;62812;55.188;61.302;2023-06-10T01:38:49;15.55;;;6.57;;
74375;SDS011;62812;55.188;61.302;2023-06-10T01:41:20;11.15;;;6.38;;
74375;SDS011;62812;55.188;61.302;2023-06-10T01:43:48;13.05;;;6.22;;
74375;SDS011;62812;55.188;61.302;2023-06-10T01:46:15;12.55;;;6.80;;
74375;SDS011;62812;55.188;61.302;2023-06-10T01:48:46;12.30;;;6.35;;
74375;SDS011;62812;55.188;61.302;2023-06-10T01:51:12;11.55;;;6.22;;
74375;SDS011;62812;55.188;61.302;2023-06-10T01:53:41;10.52;;;6.03;;
74375;SDS011;62812;55.188;61.302;2023-06-10T01:56:08;11.50;;;6.15;;
74375;SDS011;62812;55.188;61.302;2023-06-10T01:58:35;11.35;;;6.68;;
74375;SDS011;62812;55.188;61.302;2023-06-10T02:01:02;12.80;;;6.32;;
74375;SDS011;62812;55.188;61.302;2023-06-10T02:03:29;15.68;;;7.05;;
74375;SDS011;62812;55.188;61.302;2023-06-10T02:05:55;12.25;;;6.30;;
74375;SDS011;62812;55.188;61.302;2023-06-10T02:08:22;14.07;;;6.38;;
74375;SDS011;62812;55.188;61.302;2023-06-10T02:10:50;13.80;;;7.25;;
74375;SDS011;62812;55.188;61.302;2023-06-10T02:13:17;11.90;;;6.85;;
74375;SDS011;62812;55.188;61.302;2023-06-10T02:15:46;16.23;;;7.13;;
74375;SDS011;62812;55.188;61.302;2023-06-10T02:18:15;11.65;;;6.93;;
74375;SDS011;62812;55.188;61.302;2023-06-10T02:20:46;13.50;;;7.47;;
74375;SDS011;62812;55.188;61.302;2023-06-10T02:23:13;15.75;;;7.60;;
74375;SDS011;62812;55.188;61.302;2023-06-10T02:25:42;12.02;;;7.70;;
74375;SDS011;62812;55.188;61.302;2023-06-10T02:28:12;13.27;;;8.10;;
74375;SDS011;62812;55.188;61.302;2023-06-10T02:30:43;15.63;;;7.95;;
74375;SDS011;62812;55.188;61.302;2023-06-10T02:33:16;13.55;;;7.90;;
74375;SDS011;62812;55.188;61.302;2023-06-10T02:35:46;15.40;;;8.02;;
74375;SDS011;62812;55.188;61.302;2023-06-10T02:38:17;16.75;;;7.82;;
74375;SDS011;62812;55.188;61.302;2023-06-10T02:40:44;19.00;;;7.93;;
74375;SDS011;62812;55.188;61.302;2023-06-10T02:43:12;13.20;;;7.63;;
74375;SDS011;62812;55.188;61.302;2023-06-10T02:45:38;15.38;;;7.78;;
74375;SDS011;62812;55.188;61.302;2023-06-10T02:48:06;12.95;;;7.55;;
74375;SDS011;62812;55.188;61.302;2023-06-10T02:50:38;15.45;;;8.05;;
74375;SDS011;62812;55.188;61.302;2023-06-10T02:53:06;13.77;;;8.52;;
74375;SDS011;62812;55.188;61.302;2023-06-10T02:55:33;15.20;;;7.93;;
74375;SDS011;62812;55.188;61.302;2023-06-10T02:58:03;17.95;;;8.45;;
74375;SDS011;62812;55.188;61.302;2023-06-10T03:00:32;14.63;;;8.32;;
74375;SDS011;62812;55.188;61.302;2023-06-10T03:02:59;12.75;;;8.10;;
74375;SDS011;62812;55.188;61.302;2023-06-10T03:05:28;16.08;;;7.50;;
74375;SDS011;62812;55.188;61.302;2023-06-10T03:07:58;13.13;;;7.85;;
74375;SDS011;62812;55.188;61.302;2023-06-10T03:10:24;14.32;;;8.35;;
74375;SDS011;62812;55.188;61.302;2023-06-10T03:12:51;14.27;;;7.85;;
74375;SDS011;62812;55.188;61.302;2023-06-10T03:15:18;13.50;;;7.93;;
74375;SDS011;62812;55.188;61.302;2023-06-10T03:17:49;18.00;;;8.15;;
74375;SDS011;62812;55.188;61.302;2023-06-10T03:20:16;14.82;;;7.90;;
74375;SDS011;62812;55.188;61.302;2023-06-10T03:22:45;13.35;;;8.82;;
74375;SDS011;62812;55.188;61.302;2023-06-10T03:25:12;14.82;;;7.88;;
74375;SDS011;62812;55.188;61.302;2023-06-10T03:27:41;17.13;;;7.95;;
74375;SDS011;62812;55.188;61.302;2023-06-10T03:30:08;15.85;;;8.07;;
74375;SDS011;62812;55.188;61.302;2023-06-10T03:32:36;13.43;;;8.18;;
74375;SDS011;62812;55.188;61.302;2023-06-10T03:35:04;15.52;;;7.80;;
74375;SDS011;62812;55.188;61.302;2023-06-10T03:37:35;13.52;;;7.88;;
74375;SDS011;62812;55.188;61.302;2023-06-10T03:40:02;19.65;;;8.27;;
74375;SDS011;62812;55.188;61.302;2023-06-10T03:42:34;13.10;;;8.02;;
74375;SDS011;62812;55.188;61.302;2023-06-10T03:45:01;14.40;;;7.55;;
74375;SDS011;62812;55.188;61.302;2023-06-10T03:47:32;11.90;;;7.70;;
74375;SDS011;62812;55.188;61.302;2023-06-10T03:50:00;12.63;;;7.40;;
74375;SDS011;62812;55.188;61.302;2023-06-10T03:52:31;15.30;;;7.47;;
74375;SDS011;62812;55.188;61.302;2023-06-10T03:55:00;12.40;;;7.20;;
74375;SDS011;62812;55.188;61.302;2023-06-10T03:57:29;13.88;;;7.20;;
74375;SDS011;62812;55.188;61.302;2023-06-10T03:59:58;13.65;;;7.35;;
74375;SDS011;62812;55.188;61.302;2023-06-10T04:02:28;13.18;;;6.90;;
74375;SDS011;62812;55.188;61.302;2023-06-10T04:04:58;13.00;;;6.40;;
74375;SDS011;62812;55.188;61.302;2023-06-10T04:07:25;11.50;;;6.63;;
74375;SDS011;62812;55.188;61.302;2023-06-10T04:09:53;11.40;;;6.28;;
74375;SDS011;62812;55.188;61.302;2023-06-10T04:12:20;11.93;;;6.90;;
74375;SDS011;62812;55.188;61.302;2023-06-10T04:14:47;12.95;;;6.35;;
74375;SDS011;62812;55.188;61.302;2023-06-10T04:17:16;11.57;;;6.72;;
74375;SDS011;62812;55.188;61.302;2023-06-10T04:20:07;13.15;;;6.72;;
74375;SDS011;62812;55.188;61.302;2023-06-10T04:23:13;13.52;;;6.82;;
74375;SDS011;62812;55.188;61.302;2023-06-10T04:25:55;10.20;;;5.97;;
74375;SDS011;62812;55.188;61.302;2023-06-10T04:29:07;8.50;;;5.15;;
74375;SDS011;62812;55.188;61.302;2023-06-10T04:32:13;10.00;;;5.80;;
74375;SDS011;62812;55.188;61.302;2023-06-10T04:36:16;9.80;;;5.50;;
74375;SDS011;62812;55.188;61.302;2023-06-10T04:39:15;10.95;;;5.70;;
74375;SDS011;62812;55.188;61.302;2023-06-10T04:42:03;8.90;;;5.22;;
74375;SDS011;62812;55.188;61.302;2023-06-10T04:44:48;8.13;;;4.82;;
74375;SDS011;62812;55.188;61.302;2023-06-10T04:47:35;10.65;;;5.47;;
74375;SDS011;62812;55.188;61.302;2023-06-10T04:50:24;8.55;;;5.60;;
74375;SDS011;62812;55.188;61.302;2023-06-10T04:53:11;13.52;;;5.55;;
74375;SDS011;62812;55.188;61.302;2023-06-10T04:56:09;8.52;;;5.40;;
74375;SDS011;62812;55.188;61.302;2023-06-10T04:58:57;10.85;;;5.10;;
74375;SDS011;62812;55.188;61.302;2023-06-10T05:01:32;10.32;;;4.57;;
74375;SDS011;62812;55.188;61.302;2023-06-10T05:04:34;10.23;;;4.95;;
74375;SDS011;62812;55.188;61.302;2023-06-10T05:07:49;11.50;;;4.65;;
74375;SDS011;62812;55.188;61.302;2023-06-10T05:10:24;10.43;;;4.28;;
74375;SDS011;62812;55.188;61.302;2023-06-10T05:12:57;9.80;;;5.00;;
74375;SDS011;62812;55.188;61.302;2023-06-10T05:15:48;7.15;;;4.60;;
74375;SDS011;62812;55.188;61.302;2023-06-10T05:18:42;8.63;;;4.20;;
74375;SDS011;62812;55.188;61.302;2023-06-10T05:21:21;13.73;;;5.03;;
74375;SDS011;62812;55.188;61.302;2023-06-10T05:24:27;9.30;;;4.35;;
74375;SDS011;62812;55.188;61.302;2023-06-10T05:27:10;6.18;;;3.63;;
74375;SDS011;62812;55.188;61.302;2023-06-10T05:29:41;6.35;;;4.07;;
74375;SDS011;62812;55.188;61.302;2023-06-10T05:32:34;8.05;;;3.83;;
74375;SDS011;62812;55.188;61.302;2023-06-10T05:35:11;8.80;;;3.70;;
74375;SDS011;62812;55.188;61.302;2023-06-10T05:38:02;7.68;;;3.80;;
74375;SDS011;62812;55.188;61.302;2023-06-10T05:42:56;10.18;;;3.65;;
74375;SDS011;62812;55.188;61.302;2023-06-10T05:45:34;11.18;;;7.03;;
74375;SDS011;62812;55.188;61.302;2023-06-10T05:48:12;11.30;;;6.00;;
74375;SDS011;62812;55.188;61.302;2023-06-10T05:50:42;5.78;;;3.65;;
74375;SDS011;62812;55.188;61.302;2023-06-10T05:53:14;7.07;;;3.60;;
74375;SDS011;62812;55.188;61.302;2023-06-10T05:55:45;10.98;;;4.00;;
74375;SDS011;62812;55.188;61.302;2023-06-10T06:01:54;6.78;;;3.15;;
74375;SDS011;62812;55.188;61.302;2023-06-10T06:04:30;10.05;;;4.03;;
74375;SDS011;62812;55.188;61.302;2023-06-10T06:07:03;13.05;;;4.05;;
74375;SDS011;62812;55.188;61.302;2023-06-10T06:09:34;11.10;;;3.95;;
74375;SDS011;62812;55.188;61.302;2023-06-10T06:12:03;8.57;;;3.28;;
74375;SDS011;62812;55.188;61.302;2023-06-10T06:14:36;7.50;;;3.83;;
74375;SDS011;62812;55.188;61.302;2023-06-10T06:17:09;7.53;;;3.08;;
74375;SDS011;62812;55.188;61.302;2023-06-10T06:19:51;6.88;;;2.90;;
74375;SDS011;62812;55.188;61.302;2023-06-10T06:25:49;6.20;;;2.97;;
74375;SDS011;62812;55.188;61.302;2023-06-10T06:28:37;16.27;;;4.60;;
74375;SDS011;62812;55.188;61.302;2023-06-10T06:32:39;5.47;;;2.60;;
74375;SDS011;62812;55.188;61.302;2023-06-10T06:39:55;7.90;;;3.03;;
74375;SDS011;62812;55.188;61.302;2023-06-10T06:42:24;6.82;;;2.88;;
74375;SDS011;62812;55.188;61.302;2023-06-10T06:44:51;6.55;;;2.92;;
74375;SDS011;62812;55.188;61.302;2023-06-10T06:47:18;5.88;;;2.70;;
74375;SDS011;62812;55.188;61.302;2023-06-10T06:49:45;6.82;;;2.78;;
74375;SDS011;62812;55.188;61.302;2023-06-10T06:52:12;7.10;;;2.80;;
74375;SDS011;62812;55.188;61.302;2023-06-10T06:54:41;6.10;;;2.72;;
74375;SDS011;62812;55.188;61.302;2023-06-10T06:57:09;8.20;;;2.83;;
74375;SDS011;62812;55.188;61.302;2023-06-10T06:59:41;8.43;;;2.67;;
74375;SDS011;62812;55.188;61.302;2023-06-10T07:02:13;5.25;;;2.42;;
74375;SDS011;62812;55.188;61.302;2023-06-10T07:04:41;6.45;;;2.50;;
74375;SDS011;62812;55.188;61.302;2023-06-10T07:07:11;10.48;;;2.85;;
74375;SDS011;62812;55.188;61.302;2023-06-10T07:09:41;7.10;;;2.58;;
74375;SDS011;62812;55.188;61.302;2023-06-10T07:12:15;8.18;;;2.53;;
74375;SDS011;62812;55.188;61.302;2023-06-10T07:14:42;8.70;;;2.58;;
74375;SDS011;62812;55.188;61.302;2023-06-10T07:17:11;6.05;;;2.58;;
74375;SDS011;62812;55.188;61.302;2023-06-10T07:22:07;10.80;;;3.38;;
74375;SDS011;62812;55.188;61.302;2023-06-10T07:24:35;6.78;;;2.20;;
74375;SDS011;62812;55.188;61.302;2023-06-10T07:27:05;5.63;;;2.33;;
74375;SDS011;62812;55.188;61.302;2023-06-10T07:29:37;4.57;;;1.80;;
74375;SDS011;62812;55.188;61.302;2023-06-10T07:32:04;3.72;;;1.67;;
74375;SDS011;62812;55.188;61.302;2023-06-10T07:34:40;4.82;;;2.00;;
74375;SDS011;62812;55.188;61.302;2023-06-10T07:37:07;4.30;;;1.80;;
74375;SDS011;62812;55.188;61.302;2023-06-10T07:39:34;5.20;;;1.75;;
74375;SDS011;62812;55.188;61.302;2023-06-10T07:42:04;5.15;;;1.80;;
74375;SDS011;62812;55.188;61.302;2023-06-10T07:47:03;6.47;;;2.30;;
74375;SDS011;62812;55.188;61.302;2023-06-10T07:49:31;5.88;;;2.00;;
74375;SDS011;62812;55.188;61.302;2023-06-10T07:51:58;4.22;;;1.70;;
74375;SDS011;62812;55.188;61.302;2023-06-10T07:54:33;5.57;;;1.73;;
74375;SDS011;62812;55.188;61.302;2023-06-10T07:57:01;4.93;;;1.85;;
74375;SDS011;62812;55.188;61.302;2023-06-10T07:59:29;5.53;;;1.80;;
74375;SDS011;62812;55.188;61.302;2023-06-10T08:01:56;5.07;;;2.00;;
74375;SDS011;62812;55.188;61.302;2023-06-10T08:04:28;9.85;;;2.35;;
74375;SDS011;62812;55.188;61.302;2023-06-10T08:07:20;7.72;;;2.22;;
74375;SDS011;62812;55.188;61.302;2023-06-10T08:09:51;5.88;;;1.95;;
74375;SDS011;62812;55.188;61.302;2023-06-10T08:14:46;15.70;;;3.60;;
74375;SDS011;62812;55.188;61.302;2023-06-10T08:17:15;9.93;;;1.88;;
74375;SDS011;62812;55.188;61.302;2023-06-10T08:22:41;13.43;;;2.30;;
74375;SDS011;62812;55.188;61.302;2023-06-10T08:25:08;8.10;;;1.92;;
74375;SDS011;62812;55.188;61.302;2023-06-10T08:27:36;4.93;;;1.92;;
74375;SDS011;62812;55.188;61.302;2023-06-10T08:30:06;9.27;;;2.40;;
74375;SDS011;62812;55.188;61.302;2023-06-10T08:32:44;5.13;;;2.10;;
74375;SDS011;62812;55.188;61.302;2023-06-10T08:35:20;6.20;;;2.35;;
74375;SDS011;62812;55.188;61.302;2023-06-10T08:37:50;6.75;;;2.20;;
74375;SDS011;62812;55.188;61.302;2023-06-10T08:40:19;9.82;;;2.03;;
74375;SDS011;62812;55.188;61.302;2023-06-10T08:42:49;4.85;;;1.60;;
74375;SDS011;62812;55.188;61.302;2023-06-10T08:45:32;5.65;;;1.95;;
74375;SDS011;62812;55.188;61.302;2023-06-10T08:48:02;8.88;;;2.28;;
74375;SDS011;62812;55.188;61.302;2023-06-10T08:50:35;6.75;;;2.38;;
74375;SDS011;62812;55.188;61.302;2023-06-10T08:53:04;10.68;;;2.47;;
74375;SDS011;62812;55.188;61.302;2023-06-10T08:55:32;5.97;;;2.67;;
74375;SDS011;62812;55.188;61.302;2023-06-10T08:58:04;6.53;;;2.42;;
74375;SDS011;62812;55.188;61.302;2023-06-10T09:00:31;20.50;;;3.92;;
74375;SDS011;62812;55.188;61.302;2023-06-10T09:02:58;5.38;;;2.42;;
74375;SDS011;62812;55.188;61.302;2023-06-10T09:05:31;9.38;;;2.58;;
74375;SDS011;62812;55.188;61.302;2023-06-10T09:08:02;7.85;;;2.60;;
74375;SDS011;62812;55.188;61.302;2023-06-10T09:12:58;7.97;;;2.83;;
74375;SDS011;62812;55.188;61.302;2023-06-10T09:15:25;6.30;;;3.00;;
74375;SDS011;62812;55.188;61.302;2023-06-10T09:17:53;5.88;;;2.80;;
74375;SDS011;62812;55.188;61.302;2023-06-10T09:20:20;11.57;;;2.88;;
74375;SDS011;62812;55.188;61.302;2023-06-10T09:22:53;7.82;;;4.25;;
74375;SDS011;62812;55.188;61.302;2023-06-10T09:25:20;5.72;;;2.70;;
74375;SDS011;62812;55.188;61.302;2023-06-10T09:28:04;5.50;;;2.40;;
74375;SDS011;62812;55.188;61.302;2023-06-10T09:30:31;6.07;;;2.83;;
74375;SDS011;62812;55.188;61.302;2023-06-10T09:33:00;6.97;;;2.40;;
74375;SDS011;62812;55.188;61.302;2023-06-10T09:38:02;6.43;;;2.95;;
74375;SDS011;62812;55.188;61.302;2023-06-10T09:40:29;7.47;;;3.33;;
74375;SDS011;62812;55.188;61.302;2023-06-10T09:43:17;6.43;;;3.28;;
74375;SDS011;62812;55.188;61.302;2023-06-10T09:45:52;6.90;;;2.60;;
74375;SDS011;62812;55.188;61.302;2023-06-10T09:48:23;7.28;;;2.90;;
74375;SDS011;62812;55.188;61.302;2023-06-10T09:50:50;6.43;;;3.05;;
74375;SDS011;62812;55.188;61.302;2023-06-10T09:53:20;7.05;;;2.85;;
74375;SDS011;62812;55.188;61.302;2023-06-10T09:56:01;6.75;;;3.33;;
74375;SDS011;62812;55.188;61.302;2023-06-10T09:58:36;7.57;;;2.92;;
74375;SDS011;62812;55.188;61.302;2023-06-10T10:07:46;8.82;;;2.85;;
74375;SDS011;62812;55.188;61.302;2023-06-10T10:13:59;5.32;;;2.35;;
74375;SDS011;62812;55.188;61.302;2023-06-10T10:16:32;8.27;;;2.70;;
74375;SDS011;62812;55.188;61.302;2023-06-10T10:19:28;16.25;;;4.07;;
74375;SDS011;62812;55.188;61.302;2023-06-10T10:23:24;6.90;;;2.80;;
74375;SDS011;62812;55.188;61.302;2023-06-10T10:25:57;6.38;;;2.70;;
74375;SDS011;62812;55.188;61.302;2023-06-10T10:28:34;8.65;;;3.17;;
74375;SDS011;62812;55.188;61.302;2023-06-10T10:31:21;8.60;;;2.80;;
74375;SDS011;62812;55.188;61.302;2023-06-10T10:33:51;5.75;;;2.75;;
74375;SDS011;62812;55.188;61.302;2023-06-10T10:36:23;7.07;;;2.60;;
74375;SDS011;62812;55.188;61.302;2023-06-10T10:38:51;5.35;;;2.83;;
74375;SDS011;62812;55.188;61.302;2023-06-10T10:41:19;8.50;;;3.13;;
74375;SDS011;62812;55.188;61.302;2023-06-10T10:43:46;8.10;;;2.72;;
74375;SDS011;62812;55.188;61.302;2023-06-10T10:46:16;7.55;;;2.65;;
74375;SDS011;62812;55.188;61.302;2023-06-10T10:48:49;7.85;;;2.92;;
74375;SDS011;62812;55.188;61.302;2023-06-10T10:51:25;6.95;;;2.95;;
74375;SDS011;62812;55.188;61.302;2023-06-10T10:54:19;5.32;;;2.78;;
74375;SDS011;62812;55.188;61.302;2023-06-10T10:57:14;8.15;;;2.60;;
74375;SDS011;62812;55.188;61.302;2023-06-10T10:59:54;8.57;;;2.80;;
74375;SDS011;62812;55.188;61.302;2023-06-10T11:02:39;4.97;;;2.33;;
74375;SDS011;62812;55.188;61.302;2023-06-10T11:05:09;8.07;;;2.63;;
74375;SDS011;62812;55.188;61.302;2023-06-10T11:07:37;7.60;;;2.78;;
74375;SDS011;62812;55.188;61.302;2023-06-10T11:10:06;8.48;;;2.65;;
74375;SDS011;62812;55.188;61.302;2023-06-10T11:12:52;6.72;;;2.75;;
74375;SDS011;62812;55.188;61.302;2023-06-10T11:15:22;4.68;;;2.53;;
74375;SDS011;62812;55.188;61.302;2023-06-10T11:18:12;9.85;;;3.40;;
74375;SDS011;62812;55.188;61.302;2023-06-10T11:23:26;10.00;;;2.88;;
74375;SDS011;62812;55.188;61.302;2023-06-10T11:26:13;6.00;;;2.53;;
74375;SDS011;62812;55.188;61.302;2023-06-10T11:32:38;8.23;;;2.83;;
74375;SDS011;62812;55.188;61.302;2023-06-10T11:35:12;5.63;;;2.85;;
74375;SDS011;62812;55.188;61.302;2023-06-10T11:37:41;4.75;;;2.50;;
74375;SDS011;62812;55.188;61.302;2023-06-10T11:40:09;8.27;;;3.13;;
74375;SDS011;62812;55.188;61.302;2023-06-10T11:42:38;11.13;;;3.08;;
74375;SDS011;62812;55.188;61.302;2023-06-10T11:45:09;6.40;;;2.75;;
74375;SDS011;62812;55.188;61.302;2023-06-10T11:47:42;7.43;;;2.60;;
74375;SDS011;62812;55.188;61.302;2023-06-10T11:50:32;5.78;;;2.60;;
74375;SDS011;62812;55.188;61.302;2023-06-10T11:53:00;7.25;;;2.60;;
74375;SDS011;62812;55.188;61.302;2023-06-10T11:55:44;7.27;;;2.60;;
74375;SDS011;62812;55.188;61.302;2023-06-10T11:58:13;6.88;;;2.97;;
74375;SDS011;62812;55.188;61.302;2023-06-10T12:01:08;6.57;;;3.00;;
74375;SDS011;62812;55.188;61.302;2023-06-10T12:03:59;10.35;;;3.13;;
74375;SDS011;62812;55.188;61.302;2023-06-10T12:06:29;8.13;;;2.92;;
74375;SDS011;62812;55.188;61.302;2023-06-10T12:09:12;9.77;;;2.85;;
74375;SDS011;62812;55.188;61.302;2023-06-10T12:11:48;14.80;;;3.50;;
74375;SDS011;62812;55.188;61.302;2023-06-10T12:17:21;7.43;;;2.92;;
74375;SDS011;62812;55.188;61.302;2023-06-10T12:19:55;5.97;;;2.60;;
74375;SDS011;62812;55.188;61.302;2023-06-10T12:22:28;5.22;;;2.55;;
74375;SDS011;62812;55.188;61.302;2023-06-10T12:25:04;6.97;;;2.83;;
74375;SDS011;62812;55.188;61.302;2023-06-10T12:27:33;6.70;;;3.00;;
74375;SDS011;62812;55.188;61.302;2023-06-10T12:30:01;5.85;;;2.53;;
74375;SDS011;62812;55.188;61.302;2023-06-10T12:32:35;5.97;;;2.70;;
74375;SDS011;62812;55.188;61.302;2023-06-10T12:35:06;15.57;;;3.30;;
74375;SDS011;62812;55.188;61.302;2023-06-10T12:37:39;7.57;;;3.10;;
74375;SDS011;62812;55.188;61.302;2023-06-10T12:40:09;9.77;;;2.92;;
74375;SDS011;62812;55.188;61.302;2023-06-10T12:42:44;11.98;;;2.60;;
74375;SDS011;62812;55.188;61.302;2023-06-10T12:45:17;6.50;;;2.80;;
74375;SDS011;62812;55.188;61.302;2023-06-10T12:48:04;7.18;;;2.80;;
74375;SDS011;62812;55.188;61.302;2023-06-10T12:50:33;6.72;;;2.47;;
74375;SDS011;62812;55.188;61.302;2023-06-10T12:53:14;10.00;;;2.85;;
74375;SDS011;62812;55.188;61.302;2023-06-10T12:55:42;6.38;;;2.78;;
74375;SDS011;62812;55.188;61.302;2023-06-10T12:58:11;10.55;;;3.00;;
74375;SDS011;62812;55.188;61.302;2023-06-10T13:00:42;9.68;;;3.33;;
74375;SDS011;62812;55.188;61.302;2023-06-10T13:03:14;6.25;;;2.42;;
74375;SDS011;62812;55.188;61.302;2023-06-10T13:05:55;9.02;;;3.08;;
74375;SDS011;62812;55.188;61.302;2023-06-10T13:08:28;6.35;;;2.85;;
74375;SDS011;62812;55.188;61.302;2023-06-10T13:10:58;6.88;;;3.35;;
74375;SDS011;62812;55.188;61.302;2023-06-10T13:13:27;8.73;;;3.00;;
74375;SDS011;62812;55.188;61.302;2023-06-10T13:15:55;6.60;;;2.20;;
74375;SDS011;62812;55.188;61.302;2023-06-10T13:18:23;5.07;;;2.40;;
74375;SDS011;62812;55.188;61.302;2023-06-10T13:23:20;9.00;;;2.95;;
74375;SDS011;62812;55.188;61.302;2023-06-10T13:25:51;15.23;;;3.00;;
74375;SDS011;62812;55.188;61.302;2023-06-10T13:28:19;16.70;;;2.83;;
74375;SDS011;62812;55.188;61.302;2023-06-10T13:30:47;5.90;;;2.30;;
74375;SDS011;62812;55.188;61.302;2023-06-10T13:33:18;5.43;;;2.80;;
74375;SDS011;62812;55.188;61.302;2023-06-10T13:35:46;7.95;;;2.72;;
74375;SDS011;62812;55.188;61.302;2023-06-10T13:38:15;5.60;;;2.67;;
74375;SDS011;62812;55.188;61.302;2023-06-10T13:40:42;8.50;;;2.97;;
74375;SDS011;62812;55.188;61.302;2023-06-10T13:43:14;7.47;;;2.40;;
74375;SDS011;62812;55.188;61.302;2023-06-10T13:45:47;10.80;;;6.00;;
74375;SDS011;62812;55.188;61.302;2023-06-10T13:48:16;6.68;;;2.70;;
74375;SDS011;62812;55.188;61.302;2023-06-10T13:50:44;16.77;;;3.08;;
74375;SDS011;62812;55.188;61.302;2023-06-10T13:53:12;7.68;;;2.22;;
74375;SDS011;62812;55.188;61.302;2023-06-10T13:55:42;7.38;;;2.17;;
74375;SDS011;62812;55.188;61.302;2023-06-10T13:58:10;3.88;;;1.77;;
74375;SDS011;62812;55.188;61.302;2023-06-10T14:00:39;6.47;;;2.40;;
74375;SDS011;62812;55.188;61.302;2023-06-10T14:03:06;4.93;;;2.42;;
74375;SDS011;62812;55.188;61.302;2023-06-10T14:05:34;5.78;;;2.20;;
74375;SDS011;62812;55.188;61.302;2023-06-10T14:08:02;5.82;;;2.40;;
74375;SDS011;62812;55.188;61.302;2023-06-10T14:10:33;8.30;;;2.30;;
74375;SDS011;62812;55.188;61.302;2023-06-10T14:13:05;5.70;;;2.75;;
74375;SDS011;62812;55.188;61.302;2023-06-10T14:15:33;6.47;;;3.92;;
74375;SDS011;62812;55.188;61.302;2023-06-10T14:18:02;6.68;;;2.65;;
74375;SDS011;62812;55.188;61.302;2023-06-10T14:20:30;7.30;;;2.53;;
74375;SDS011;62812;55.188;61.302;2023-06-10T14:22:57;7.72;;;2.72;;
74375;SDS011;62812;55.188;61.302;2023-06-10T14:25:26;8.93;;;2.60;;
74375;SDS011;62812;55.188;61.302;2023-06-10T14:27:53;6.95;;;2.45;;
74375;SDS011;62812;55.188;61.302;2023-06-10T14:30:21;6.72;;;2.60;;
74375;SDS011;62812;55.188;61.302;2023-06-10T14:32:49;10.65;;;2.47;;
74375;SDS011;62812;55.188;61.302;2023-06-10T14:35:19;5.22;;;2.25;;
74375;SDS011;62812;55.188;61.302;2023-06-10T14:37:50;5.68;;;2.28;;
74375;SDS011;62812;55.188;61.302;2023-06-10T14:40:17;5.10;;;2.13;;
74375;SDS011;62812;55.188;61.302;2023-06-10T14:42:46;7.85;;;2.65;;
74375;SDS011;62812;55.188;61.302;2023-06-10T14:45:16;8.02;;;2.72;;
74375;SDS011;62812;55.188;61.302;2023-06-10T14:47:43;8.18;;;3.13;;
74375;SDS011;62812;55.188;61.302;2023-06-10T14:50:11;5.82;;;2.47;;
74375;SDS011;62812;55.188;61.302;2023-06-10T14:52:40;9.07;;;2.80;;
74375;SDS011;62812;55.188;61.302;2023-06-10T14:55:07;8.50;;;2.55;;
74375;SDS011;62812;55.188;61.302;2023-06-10T14:57:35;5.32;;;2.40;;
74375;SDS011;62812;55.188;61.302;2023-06-10T15:00:02;7.65;;;2.90;;
74375;SDS011;62812;55.188;61.302;2023-06-10T15:02:31;7.47;;;2.47;;
74375;SDS011;62812;55.188;61.302;2023-06-10T15:04:58;11.27;;;2.92;;
74375;SDS011;62812;55.188;61.302;2023-06-10T15:07:25;11.32;;;3.88;;
74375;SDS011;62812;55.188;61.302;2023-06-10T15:09:56;9.70;;;3.85;;
74375;SDS011;62812;55.188;61.302;2023-06-10T15:12:23;14.95;;;6.47;;
74375;SDS011;62812;55.188;61.302;2023-06-10T15:14:51;13.75;;;4.82;;
74375;SDS011;62812;55.188;61.302;2023-06-10T15:17:18;8.02;;;3.40;;
74375;SDS011;62812;55.188;61.302;2023-06-10T15:19:48;12.48;;;3.55;;
74375;SDS011;62812;55.188;61.302;2023-06-10T15:22:16;10.27;;;3.55;;
74375;SDS011;62812;55.188;61.302;2023-06-10T15:24:45;6.93;;;3.08;;
74375;SDS011;62812;55.188;61.302;2023-06-10T15:27:13;7.55;;;3.03;;
74375;SDS011;62812;55.188;61.302;2023-06-10T15:29:44;7.82;;;2.90;;
74375;SDS011;62812;55.188;61.302;2023-06-10T15:32:12;15.23;;;7.07;;
74375;SDS011;62812;55.188;61.302;2023-06-10T15:34:39;13.05;;;5.85;;
74375;SDS011;62812;55.188;61.302;2023-06-10T15:37:07;6.28;;;2.88;;
74375;SDS011;62812;55.188;61.302;2023-06-10T15:39:35;10.25;;;4.30;;
74375;SDS011;62812;55.188;61.302;2023-06-10T15:42:03;12.02;;;6.18;;
74375;SDS011;62812;55.188;61.302;2023-06-10T15:44:32;9.18;;;3.67;;
74375;SDS011;62812;55.188;61.302;2023-06-10T15:47:00;8.43;;;3.25;;
74375;SDS011;62812;55.188;61.302;2023-06-10T15:49:27;7.28;;;3.50;;
74375;SDS011;62812;55.188;61.302;2023-06-10T15:51:55;9.38;;;3.22;;
74375;SDS011;62812;55.188;61.302;2023-06-10T15:54:22;7.65;;;3.72;;